Time;durP1;ratioP1;P1;durP2;ratioP2;P2;SDS_P1;SDS_P2;PMS_P1;PMS_P2;Temp;Humidity;BMP_temperature;BMP_pressure;BME280_temperature;BME280_humidity;BME280_pressure;Samples;Min_cycle;Max_cycle;Signal;HPM_P1;HPM_P2
2022/07/25 00:02:25;;;;;;;10.75;9.50;;;;;;;21.43;59.26;98558.41;4990049;28;20387;-77
2022/07/25 00:04:51;;;;;;;17.95;10.23;;;;;;;21.40;59.26;98556.16;4957587;28;20043;-77
2022/07/25 00:07:17;;;;;;;14.25;10.43;;;;;;;21.41;59.10;98565.97;4974983;28;20589;-77
2022/07/25 00:09:43;;;;;;;24.00;9.93;;;;;;;21.46;59.00;98563.44;4973552;28;20154;-77
2022/07/25 00:12:09;;;;;;;13.02;9.38;;;;;;;21.50;58.74;98575.56;4973704;28;20050;-77
2022/07/25 00:14:35;;;;;;;15.05;9.48;;;;;;;21.56;58.64;98584.78;4974829;28;20463;-78
2022/07/25 00:17:01;;;;;;;9.85;8.50;;;;;;;21.64;58.74;98598.16;4974656;28;20057;-77
2022/07/25 00:19:26;;;;;;;19.73;10.07;;;;;;;21.77;58.40;98619.88;4973449;28;20044;-78
2022/07/25 00:21:53;;;;;;;15.55;9.10;;;;;;;21.93;58.22;98634.09;4973183;28;20046;-77
2022/07/25 00:24:18;;;;;;;16.42;10.00;;;;;;;21.92;58.06;98595.13;4973619;28;20129;-77
2022/07/25 00:26:44;;;;;;;21.05;10.25;;;;;;;21.97;58.46;98600.78;4989171;28;20586;-78
2022/07/25 00:29:10;;;;;;;38.55;11.27;;;;;;;21.97;58.07;98603.50;4974595;28;20050;-79
2022/07/25 00:31:36;;;;;;;35.10;11.82;;;;;;;22.01;58.07;98603.91;4973122;28;20214;-78
2022/07/25 00:34:02;;;;;;;29.75;10.95;;;;;;;21.99;58.05;98600.56;4989427;28;20545;-81
2022/07/25 00:36:28;;;;;;;25.50;11.48;;;;;;;22.12;57.71;98605.97;4989327;28;20056;-80
2022/07/25 00:38:54;;;;;;;25.17;11.25;;;;;;;22.14;57.96;98590.28;4973134;28;20482;-79
2022/07/25 00:41:19;;;;;;;32.88;10.35;;;;;;;22.12;57.76;98591.53;4974035;28;20054;-78
2022/07/25 00:43:45;;;;;;;33.58;10.73;;;;;;;22.14;57.69;98592.16;4972791;28;20081;-80
2022/07/25 00:46:13;;;;;;;28.90;10.95;;;;;;;22.27;57.48;98592.13;4972686;28;20046;-78
2022/07/25 00:48:39;;;;;;;26.42;10.30;;;;;;;22.33;57.02;98591.25;4989204;28;20395;-81
2022/07/25 00:51:06;;;;;;;30.73;10.90;;;;;;;22.40;57.34;98591.22;4973918;28;20154;-79
2022/07/25 00:53:32;;;;;;;33.13;10.55;;;;;;;22.49;56.79;98585.31;4972899;28;20047;-78
2022/07/25 00:55:58;;;;;;;44.10;11.27;;;;;;;22.58;56.44;98587.78;4973116;28;20046;-77
2022/07/25 00:58:24;;;;;;;40.00;11.15;;;;;;;22.67;56.52;98578.28;4989140;28;20043;-77
2022/07/25 01:00:50;;;;;;;46.88;12.80;;;;;;;22.72;56.79;98573.03;4974142;28;20042;-78
2022/07/25 01:03:16;;;;;;;32.95;12.68;;;;;;;22.85;56.32;98572.91;4989080;28;20129;-79
2022/07/25 01:05:43;;;;;;;57.90;15.23;;;;;;;22.94;56.19;98582.53;4989132;28;20042;-78
2022/07/25 01:08:09;;;;;;;46.05;15.57;;;;;;;22.73;56.42;98563.78;4973947;28;20050;-79
2022/07/25 01:10:36;;;;;;;37.90;15.18;;;;;;;22.90;56.69;98574.97;4988913;28;20078;-79
2022/07/25 01:13:02;;;;;;;49.30;26.63;;;;;;;22.85;57.04;98561.19;4973036;28;20047;-77
2022/07/25 01:15:28;;;;;;;46.90;30.65;;;;;;;22.81;57.11;98566.25;4973982;28;20049;-78
2022/07/25 01:17:55;;;;;;;41.53;31.27;;;;;;;22.76;57.17;98568.81;4973741;28;20081;-77
2022/07/25 01:20:26;;;;;;;44.75;32.38;;;;;;;22.77;57.17;98554.13;4972951;28;20049;-78
2022/07/25 01:22:53;;;;;;;43.05;31.02;;;;;;;22.86;57.30;98581.91;4989019;28;20042;-78
2022/07/25 01:25:19;;;;;;;32.58;25.52;;;;;;;22.88;57.07;98583.38;4975937;28;20465;-77
2022/07/25 01:27:46;;;;;;;30.75;24.48;;;;;;;22.60;57.88;98561.97;4978236;28;20059;-77
2022/07/25 01:30:14;;;;;;;34.95;23.98;;;;;;;22.50;58.65;98586.97;4977746;28;20506;-77
2022/07/25 01:32:41;;;;;;;31.08;23.00;;;;;;;22.39;59.31;98606.72;4993019;28;20047;-77
2022/07/25 01:35:08;;;;;;;31.23;22.67;;;;;;;22.40;59.25;98608.38;4976569;28;20502;-78
2022/07/25 01:37:34;;;;;;;33.97;21.88;;;;;;;22.38;59.21;98579.69;4976197;28;20117;-78
2022/07/25 01:40:01;;;;;;;34.42;22.75;;;;;;;22.38;59.45;98590.59;4976385;28;20043;-79
2022/07/25 01:42:28;;;;;;;33.88;23.35;;;;;;;22.41;59.16;98603.78;4976382;28;20055;-78
2022/07/25 01:44:54;;;;;;;29.00;19.92;;;;;;;22.57;58.82;98597.84;4992530;28;20135;-80
2022/07/25 01:47:20;;;;;;;27.70;18.33;;;;;;;22.83;58.37;98618.63;4976308;28;20055;-80
2022/07/25 01:49:46;;;;;;;34.08;17.80;;;;;;;22.86;58.32;98650.03;4977149;28;20513;-80
2022/07/25 01:52:13;;;;;;;36.85;13.80;;;;;;;22.76;58.67;98645.09;4977431;28;20052;-80
2022/07/25 01:54:39;;;;;;;30.40;12.38;;;;;;;22.54;59.78;98630.94;4977203;28;20446;-78
2022/07/25 01:57:06;;;;;;;19.88;10.25;;;;;;;22.42;60.51;98608.19;4977169;28;20074;-79
2022/07/25 01:59:37;;;;;;;24.90;11.13;;;;;;;22.41;60.96;98612.78;4975992;28;20536;-79
2022/07/25 02:02:02;;;;;;;30.75;10.95;;;;;;;22.21;62.29;98609.31;4992450;28;20045;-79
2022/07/25 02:04:28;;;;;;;33.30;11.60;;;;;;;22.18;61.96;98607.00;4975933;28;20039;-79
2022/07/25 02:06:54;;;;;;;29.10;11.73;;;;;;;22.43;61.88;98607.97;4959634;28;20042;-78
2022/07/25 02:09:20;;;;;;;24.42;11.73;;;;;;;22.57;61.52;98600.56;4992002;28;20042;-78
2022/07/25 02:11:46;;;;;;;26.65;11.95;;;;;;;22.58;61.24;98604.94;4976878;28;20043;-77
2022/07/25 02:14:11;;;;;;;29.92;11.52;;;;;;;22.69;60.73;98600.69;4991616;28;20078;-77
2022/07/25 02:16:37;;;;;;;28.15;11.90;;;;;;;22.76;60.42;98588.69;4975172;28;20438;-77
2022/07/25 02:19:03;;;;;;;22.02;10.30;;;;;;;22.70;60.59;98586.00;4975686;28;20047;-78
2022/07/25 02:21:29;;;;;;;25.75;11.45;;;;;;;22.70;60.54;98603.19;4975527;28;20134;-79
2022/07/25 02:23:55;;;;;;;23.77;10.45;;;;;;;22.78;60.60;98610.25;4975630;28;20050;-78
2022/07/25 02:26:21;;;;;;;19.17;11.52;;;;;;;22.83;60.31;98618.63;4975269;28;20078;-77
2022/07/25 02:28:49;;;;;;;21.10;10.68;;;;;;;22.91;60.00;98617.53;4976334;28;20047;-78
2022/07/25 02:31:15;;;;;;;17.83;10.47;;;;;;;22.97;59.62;98616.66;4959289;28;20046;-78
2022/07/25 02:33:41;;;;;;;19.55;11.02;;;;;;;23.02;59.02;98611.41;4976553;28;20490;-79
2022/07/25 02:36:07;;;;;;;14.93;10.70;;;;;;;23.09;59.01;98605.88;4990306;28;20050;-79
2022/07/25 02:38:34;;;;;;;24.23;11.15;;;;;;;23.10;59.29;98613.03;4959029;28;20049;-80
2022/07/25 02:41:00;;;;;;;29.45;10.93;;;;;;;23.06;59.26;98606.34;4991112;28;20049;-81
2022/07/25 02:43:26;;;;;;;21.10;11.10;;;;;;;23.14;59.27;98614.25;4975524;28;20046;-79
2022/07/25 02:45:51;;;;;;;22.73;10.38;;;;;;;23.30;58.96;98634.69;4991258;28;20054;-80
2022/07/25 02:48:17;;;;;;;32.67;12.52;;;;;;;23.39;58.86;98650.53;4991111;28;20106;-80
2022/07/25 02:50:43;;;;;;;29.45;11.90;;;;;;;23.51;58.44;98654.22;4974273;28;20058;-77
2022/07/25 02:53:09;;;;;;;28.10;10.48;;;;;;;23.60;58.27;98640.28;4958733;28;20054;-78
2022/07/25 02:55:35;;;;;;;19.20;10.95;;;;;;;23.66;57.83;98644.88;4959831;28;20167;-80
2022/07/25 02:58:01;;;;;;;23.10;10.38;;;;;;;23.70;57.51;98652.41;4974713;28;20064;-77
2022/07/25 03:00:27;;;;;;;27.50;10.98;;;;;;;23.70;57.39;98646.94;4958683;28;20050;-77
2022/07/25 03:02:53;;;;;;;18.38;10.80;;;;;;;23.62;57.20;98643.63;4974963;28;20055;-79
2022/07/25 03:05:19;;;;;;;20.55;10.73;;;;;;;23.57;57.10;98643.47;4958949;28;20058;-79
2022/07/25 03:07:45;;;;;;;24.80;10.25;;;;;;;23.57;56.91;98643.47;4959315;28;20097;-77
2022/07/25 03:10:12;;;;;;;23.08;9.35;;;;;;;23.57;56.74;98640.75;4975468;28;20042;-80
2022/07/25 03:12:39;;;;;;;19.27;10.20;;;;;;;23.60;56.89;98635.69;4976468;28;20592;-77
2022/07/25 03:15:06;;;;;;;12.68;9.75;;;;;;;23.71;56.91;98626.78;4974570;28;20035;-76
2022/07/25 03:17:32;;;;;;;18.95;10.60;;;;;;;23.83;56.59;98635.06;4975911;28;20057;-77
2022/07/25 03:19:58;;;;;;;19.60;10.68;;;;;;;23.93;56.17;98629.91;4974530;28;20059;-77
2022/07/25 03:22:24;;;;;;;17.80;9.95;;;;;;;24.06;55.62;98633.56;4990857;28;20181;-77
2022/07/25 03:24:52;;;;;;;18.80;10.35;;;;;;;24.20;55.38;98629.63;4975815;28;20094;-78
2022/07/25 03:27:18;;;;;;;24.83;11.27;;;;;;;24.33;55.25;98632.19;4990579;28;20069;-79
2022/07/25 03:29:44;;;;;;;14.18;10.07;;;;;;;24.30;55.12;98635.38;4974473;28;20414;-75
2022/07/25 03:32:10;;;;;;;20.30;10.02;;;;;;;24.17;55.64;98630.91;4974189;28;20039;-76
2022/07/25 03:34:36;;;;;;;14.88;9.63;;;;;;;24.12;55.66;98628.03;4974159;28;20463;-75
2022/07/25 03:37:02;;;;;;;16.95;9.73;;;;;;;24.14;55.54;98604.03;4975323;28;20104;-75
2022/07/25 03:39:29;;;;;;;17.83;9.98;;;;;;;24.17;55.62;98613.69;4973923;28;20047;-75
2022/07/25 03:41:55;;;;;;;20.13;11.02;;;;;;;24.21;55.82;98614.91;4974070;28;20051;-76
2022/07/25 03:44:22;;;;;;;19.05;10.80;;;;;;;24.06;56.04;98612.56;4973928;28;20057;-74
2022/07/25 03:46:49;;;;;;;15.00;10.43;;;;;;;24.04;56.26;98613.84;4973342;28;20097;-75
2022/07/25 03:49:15;;;;;;;23.98;11.88;;;;;;;24.03;56.51;98590.31;4957972;28;20047;-74
2022/07/25 03:51:40;;;;;;;21.55;12.18;;;;;;;24.25;56.33;98607.91;4975054;28;20042;-75
2022/07/25 03:54:12;;;;;;;22.83;11.93;;;;;;;24.38;56.25;98596.84;4989977;28;20039;-76
2022/07/25 03:56:43;;;;;;;20.70;11.05;;;;;;;24.17;55.91;98586.38;4975139;28;20043;-80
2022/07/25 03:59:10;;;;;;;23.50;12.82;;;;;;;24.15;55.83;98577.59;4973539;28;20039;-75
2022/07/25 04:01:36;;;;;;;28.33;12.25;;;;;;;24.06;55.46;98573.50;4973893;28;20050;-77
2022/07/25 04:04:03;;;;;;;28.60;11.98;;;;;;;24.09;55.58;98564.84;4989782;28;20101;-80
2022/07/25 04:06:29;;;;;;;27.83;10.85;;;;;;;23.88;55.99;98560.69;4957218;28;20089;-76
2022/07/25 04:08:55;;;;;;;24.83;11.60;;;;;;;24.01;55.94;98563.28;4957528;28;20062;-78
2022/07/25 04:11:21;;;;;;;39.67;11.80;;;;;;;24.19;55.61;98567.88;4973694;28;20053;-76
2022/07/25 04:13:48;;;;;;;16.80;10.73;;;;;;;24.30;55.11;98566.25;4973602;28;20057;-75
2022/07/25 04:16:13;;;;;;;15.00;10.65;;;;;;;24.52;55.01;98578.38;4973340;28;20038;-75
2022/07/25 04:18:40;;;;;;;29.25;11.07;;;;;;;24.72;54.67;98578.13;4957091;28;20147;-77
2022/07/25 04:21:06;;;;;;;33.20;12.07;;;;;;;24.90;53.95;98585.44;4973085;28;20042;-78
2022/07/25 04:23:33;;;;;;;18.52;10.20;;;;;;;24.73;54.15;98574.31;4957183;28;20047;-79
2022/07/25 04:25:58;;;;;;;23.63;10.93;;;;;;;24.78;53.76;98574.44;4974727;28;20533;-74
2022/07/25 04:28:25;;;;;;;26.02;10.90;;;;;;;24.84;53.83;98568.03;4956968;28;20076;-75
2022/07/25 04:30:51;;;;;;;21.73;11.18;;;;;;;25.02;53.64;98577.25;4973148;28;20407;-74
2022/07/25 04:33:17;;;;;;;26.90;11.80;;;;;;;25.16;53.52;98579.56;4973194;28;20050;-75
2022/07/25 04:35:42;;;;;;;24.17;11.00;;;;;;;25.37;52.95;98582.78;4974243;28;20078;-76
2022/07/25 04:38:08;;;;;;;22.23;12.25;;;;;;;25.05;53.08;98576.75;4974131;28;20482;-77
2022/07/25 04:40:34;;;;;;;17.13;10.80;;;;;;;24.79;53.65;98578.84;4989235;28;20049;-74
2022/07/25 04:43:00;;;;;;;19.35;10.90;;;;;;;24.82;53.79;98566.59;4957117;28;20042;-76
2022/07/25 04:45:26;;;;;;;22.75;11.57;;;;;;;24.86;53.50;98574.13;4941012;28;20506;-78
2022/07/25 04:47:52;;;;;;;29.35;12.20;;;;;;;24.73;53.92;98579.78;4974297;28;20050;-76
2022/07/25 04:50:18;;;;;;;25.75;13.25;;;;;;;24.67;54.03;98564.28;4972811;28;20041;-75
2022/07/25 04:52:44;;;;;;;34.40;13.15;;;;;;;25.01;53.71;98578.28;4956865;28;20146;-76
2022/07/25 04:55:11;;;;;;;31.88;14.68;;;;;;;25.28;53.23;98579.56;4973356;28;20121;-75
2022/07/25 04:57:37;;;;;;;35.67;15.20;;;;;;;25.61;52.81;98580.88;4972935;28;20158;-75
2022/07/25 05:00:05;;;;;;;29.48;14.73;;;;;;;25.89;52.44;98583.75;4988439;28;20126;-74
2022/07/25 05:02:31;;;;;;;40.30;17.20;;;;;;;26.05;51.68;98584.91;4973110;28;20043;-75
2022/07/25 05:04:57;;;;;;;34.13;22.58;;;;;;;25.92;51.59;98577.78;4973986;28;20488;-75
2022/07/25 05:07:22;;;;;;;37.05;22.40;;;;;;;26.03;51.83;98578.03;4989521;28;20057;-74
2022/07/25 05:09:48;;;;;;;44.38;22.38;;;;;;;26.14;51.87;98586.19;4956621;28;20050;-76
2022/07/25 05:12:14;;;;;;;30.45;20.70;;;;;;;26.19;51.73;98574.50;4972435;28;20089;-75
2022/07/25 05:14:40;;;;;;;39.45;21.35;;;;;;;26.21;51.67;98572.34;4972695;28;20035;-75
2022/07/25 05:17:06;;;;;;;29.65;19.23;;;;;;;26.35;51.55;98576.47;4956576;28;20379;-76
2022/07/25 05:19:32;;;;;;;38.58;17.88;;;;;;;26.63;50.92;98567.47;4988690;28;20453;-74
2022/07/25 05:21:58;;;;;;;26.95;17.05;;;;;;;26.80;50.68;98572.97;4973199;28;20050;-75
2022/07/25 05:24:23;;;;;;;36.60;17.52;;;;;;;27.04;50.32;98570.09;4972312;28;20046;-75
2022/07/25 05:26:50;;;;;;;41.17;18.60;;;;;;;27.18;49.81;98562.41;4972601;28;20149;-75
2022/07/25 05:29:15;;;;;;;31.20;18.05;;;;;;;27.41;49.45;98575.09;4972580;28;20050;-75
2022/07/25 05:31:41;;;;;;;43.63;19.48;;;;;;;27.51;48.83;98572.53;4973646;28;20046;-75
2022/07/25 05:34:07;;;;;;;34.33;19.48;;;;;;;27.44;49.12;98582.84;4988477;28;20047;-75
2022/07/25 05:36:33;;;;;;;39.63;21.50;;;;;;;27.39;48.95;98582.78;4956308;28;20045;-76
2022/07/25 05:38:59;;;;;;;50.72;22.25;;;;;;;27.44;49.18;98580.94;4972524;28;20043;-76
2022/07/25 05:41:25;;;;;;;64.05;23.27;;;;;;;27.46;48.97;98586.19;4972242;28;20113;-77
2022/07/25 05:43:51;;;;;;;50.85;25.25;;;;;;;27.46;49.16;98580.69;4972352;28;20491;-75
2022/07/25 05:46:17;;;;;;;70.30;24.45;;;;;;;27.56;49.09;98580.84;4956290;28;20093;-75
2022/07/25 05:48:44;;;;;;;49.97;24.08;;;;;;;27.43;49.31;98581.19;4972235;28;20512;-75
2022/07/25 05:51:10;;;;;;;60.80;23.35;;;;;;;27.16;50.27;98586.53;4972379;28;20039;-76
2022/07/25 05:53:36;;;;;;;59.13;21.15;;;;;;;27.11;50.31;98571.63;4972357;28;20038;-75
2022/07/25 05:56:02;;;;;;;44.88;20.85;;;;;;;27.24;50.32;98572.38;4956228;28;20046;-76
2022/07/25 05:58:28;;;;;;;46.58;20.85;;;;;;;27.24;50.16;98575.97;4955979;28;20042;-76
2022/07/25 06:00:54;;;;;;;57.88;21.30;;;;;;;27.16;49.99;98565.41;4940168;28;20482;-75
2022/07/25 06:03:20;;;;;;;54.65;20.73;;;;;;;26.94;50.71;98572.66;4973140;28;20057;-75
2022/07/25 06:05:46;;;;;;;44.67;20.42;;;;;;;26.85;51.10;98575.81;4972254;28;20046;-75
2022/07/25 06:08:13;;;;;;;32.45;20.73;;;;;;;26.90;51.01;98582.47;4972225;28;20410;-75
2022/07/25 06:10:39;;;;;;;48.72;19.58;;;;;;;26.98;50.50;98573.84;4974207;28;20109;-76
2022/07/25 06:13:05;;;;;;;43.13;20.15;;;;;;;26.97;50.35;98578.50;4991842;28;20104;-76
2022/07/25 06:15:31;;;;;;;54.20;21.88;;;;;;;27.24;50.38;98577.88;4959527;28;20042;-76
2022/07/25 06:17:56;;;;;;;49.70;20.50;;;;;;;27.10;50.00;98582.81;4975221;28;20049;-75
2022/07/25 06:20:22;;;;;;;37.38;18.70;;;;;;;27.29;50.35;98594.41;4975632;28;20042;-76
2022/07/25 06:22:48;;;;;;;35.90;17.70;;;;;;;27.76;49.86;98589.41;4991902;28;20051;-77
2022/07/25 06:25:14;;;;;;;33.42;15.68;;;;;;;28.08;48.43;98586.00;4959202;28;20532;-75
2022/07/25 06:27:41;;;;;;;25.90;14.27;;;;;;;27.96;48.14;98582.53;4975393;28;20494;-76
2022/07/25 06:30:08;;;;;;;33.22;13.80;;;;;;;28.01;48.03;98588.91;4991509;28;20049;-74
2022/07/25 06:32:34;;;;;;;20.15;13.88;;;;;;;28.31;47.50;98582.97;4974914;28;20533;-79
2022/07/25 06:35:00;;;;;;;27.98;11.35;;;;;;;28.75;46.56;98596.72;4959261;28;20050;-75
2022/07/25 06:37:26;;;;;;;24.60;11.80;;;;;;;29.08;45.38;98614.13;4976423;28;20181;-75
2022/07/25 06:39:52;;;;;;;21.73;11.98;;;;;;;29.20;44.40;98616.72;4942999;28;20046;-75
2022/07/25 06:42:18;;;;;;;16.73;10.73;;;;;;;28.98;44.73;98620.34;4991346;28;20070;-75
2022/07/25 06:44:43;;;;;;;18.42;9.57;;;;;;;29.14;44.70;98637.84;4975051;28;20042;-77
2022/07/25 06:47:11;;;;;;;19.85;9.80;;;;;;;29.19;44.40;98637.91;4975667;28;20043;-76
2022/07/25 06:49:38;;;;;;;27.20;9.27;;;;;;;29.30;43.84;98655.34;4975494;28;20046;-76
2022/07/25 06:52:05;;;;;;;26.73;9.60;;;;;;;29.58;43.65;98659.72;4974901;28;20049;-75
2022/07/25 06:54:31;;;;;;;17.13;9.25;;;;;;;29.27;43.46;98651.19;4974705;28;20056;-76
2022/07/25 06:56:57;;;;;;;24.95;10.05;;;;;;;29.24;44.04;98659.97;4974853;28;20098;-75
2022/07/25 06:59:23;;;;;;;21.63;10.05;;;;;;;29.51;43.62;98665.41;4958538;28;20034;-75
2022/07/25 07:01:49;;;;;;;18.70;10.35;;;;;;;29.77;43.16;98660.97;4959216;28;20074;-74
2022/07/25 07:04:15;;;;;;;20.45;9.10;;;;;;;29.86;42.47;98657.72;4975058;28;20418;-75
2022/07/25 07:06:41;;;;;;;14.35;9.05;;;;;;;30.21;42.21;98657.16;4975996;28;20093;-76
2022/07/25 07:09:07;;;;;;;19.77;9.60;;;;;;;30.57;42.04;98647.09;4975915;28;20085;-75
2022/07/25 07:11:33;;;;;;;23.25;9.75;;;;;;;30.90;41.64;98656.91;4975832;28;20046;-76
2022/07/25 07:14:01;;;;;;;16.75;10.18;;;;;;;31.14;40.50;98648.97;4975815;28;20047;-74
2022/07/25 07:16:29;;;;;;;16.83;10.18;;;;;;;31.07;40.39;98642.03;4927074;28;20504;-76
2022/07/25 07:18:55;;;;;;;16.25;10.23;;;;;;;31.19;40.70;98648.97;4958738;28;20050;-75
2022/07/25 07:21:21;;;;;;;15.07;10.45;;;;;;;31.21;40.46;98643.97;4957615;28;20074;-76
2022/07/25 07:23:47;;;;;;;19.15;11.05;;;;;;;31.44;40.04;98628.00;4974730;28;20050;-76
2022/07/25 07:26:13;;;;;;;16.92;10.00;;;;;;;31.50;39.33;98632.44;4975304;28;20126;-75
2022/07/25 07:28:38;;;;;;;12.73;9.50;;;;;;;31.68;39.44;98629.09;4975280;28;20047;-74
2022/07/25 07:31:04;;;;;;;24.75;9.30;;;;;;;31.43;38.38;98631.88;4975670;28;20050;-75
2022/07/25 07:33:32;;;;;;;18.95;10.48;;;;;;;31.10;38.48;98633.19;4975844;28;20146;-75
2022/07/25 07:35:59;;;;;;;25.70;9.95;;;;;;;30.77;39.11;98624.31;4974292;28;20129;-75
2022/07/25 07:38:25;;;;;;;21.02;11.18;;;;;;;30.66;39.31;98623.44;4975505;28;20046;-76
2022/07/25 07:40:52;;;;;;;15.77;10.60;;;;;;;30.69;39.53;98614.63;4975135;28;20545;-76
2022/07/25 07:43:19;;;;;;;25.20;11.52;;;;;;;30.77;39.57;98606.91;4958279;28;20038;-75
2022/07/25 07:45:45;;;;;;;21.52;11.10;;;;;;;30.74;39.88;98600.03;4974112;28;20050;-75
2022/07/25 07:48:11;;;;;;;21.52;11.10;;;;;;;30.88;39.58;98592.03;4957866;28;20043;-75
2022/07/25 07:50:37;;;;;;;32.53;11.38;;;;;;;31.20;39.30;98595.41;4975115;28;20039;-76
2022/07/25 07:53:03;;;;;;;20.77;10.75;;;;;;;31.40;39.21;98593.75;4973972;28;20492;-76
2022/07/25 07:55:44;;;;;;;17.88;10.98;;;;;;;31.63;38.86;98597.88;4973851;28;20046;-76
2022/07/25 07:58:15;;;;;;;29.35;10.80;;;;;;;31.73;38.44;98583.22;4974863;28;20065;-76
2022/07/25 08:00:43;;;;;;;24.00;11.23;;;;;;;31.71;37.95;98580.75;4973828;28;20134;-76
2022/07/25 08:03:09;;;;;;;23.65;12.45;;;;;;;31.98;38.38;98580.44;4957602;28;20042;-76
2022/07/25 08:05:41;;;;;;;22.17;11.20;;;;;;;32.20;37.95;98582.84;4973779;28;20355;-76
2022/07/25 08:08:10;;;;;;;27.98;11.30;;;;;;;32.46;37.47;98567.00;4974809;28;20486;-76
2022/07/25 08:10:38;;;;;;;27.20;11.98;;;;;;;32.62;37.03;98574.09;4974687;28;20043;-74
2022/07/25 08:13:17;;;;;;;24.35;10.82;;;;;;;32.60;36.52;98568.00;4972890;28;20489;-76
2022/07/25 08:15:44;;;;;;;16.63;9.05;;;;;;;32.55;36.74;98565.28;4961556;28;20109;-75
2022/07/25 08:18:10;;;;;;;19.15;9.70;;;;;;;32.79;36.39;98564.59;4973179;28;20051;-75
2022/07/25 08:20:37;;;;;;;19.90;7.57;;;;;;;32.77;35.09;98561.28;4957182;28;20042;-75
2022/07/25 08:23:02;;;;;;;12.50;6.68;;;;;;;32.65;35.44;98567.19;4957052;28;20042;-74
2022/07/25 08:25:28;;;;;;;7.93;5.50;;;;;;;32.84;34.27;98567.34;4973414;28;20093;-74
2022/07/25 08:27:54;;;;;;;10.48;5.28;;;;;;;32.81;33.72;98556.84;4972849;28;20490;-75
2022/07/25 08:30:20;;;;;;;10.23;5.80;;;;;;;32.42;34.26;98554.00;4973233;28;20038;-75
2022/07/25 08:32:53;;;;;;;18.77;6.50;;;;;;;32.61;34.64;98566.91;4972756;28;20038;-75
2022/07/25 08:35:20;;;;;;;14.63;5.72;;;;;;;32.56;34.18;98561.41;4972725;28;20043;-75
2022/07/25 08:37:48;;;;;;;17.73;6.47;;;;;;;32.70;34.57;98572.66;4973146;28;20048;-74
2022/07/25 08:40:15;;;;;;;11.65;6.65;;;;;;;32.75;34.13;98564.31;4972828;28;20465;-75
2022/07/25 08:42:41;;;;;;;13.25;5.68;;;;;;;32.88;33.36;98568.41;4989314;28;20050;-75
2022/07/25 08:45:09;;;;;;;10.38;4.78;;;;;;;32.12;33.80;98569.59;4956640;28;20057;-76
2022/07/25 08:47:36;;;;;;;12.52;4.82;;;;;;;32.51;33.33;98575.28;4972974;28;20413;-76
2022/07/25 08:50:07;;;;;;;6.65;4.50;;;;;;;32.87;32.74;98578.66;4988897;28;20054;-75
2022/07/25 08:52:35;;;;;;;10.73;5.53;;;;;;;32.99;32.54;98570.03;4972914;28;20391;-74
2022/07/25 08:55:07;;;;;;;11.95;5.03;;;;;;;33.17;32.35;98573.19;4988723;28;20077;-75
2022/07/25 08:57:35;;;;;;;13.35;4.60;;;;;;;33.09;32.44;98569.91;4972807;28;20051;-74
2022/07/25 09:00:03;;;;;;;16.17;5.40;;;;;;;32.83;33.12;98574.78;4972635;28;20125;-75
2022/07/25 09:02:29;;;;;;;12.93;5.22;;;;;;;32.78;33.06;98577.59;4972580;28;20078;-75
2022/07/25 09:04:56;;;;;;;9.55;5.18;;;;;;;32.84;32.75;98570.94;4972622;28;20099;-75
2022/07/25 09:07:40;;;;;;;9.88;4.72;;;;;;;32.99;32.94;98566.44;4972817;28;20054;-75
2022/07/25 09:10:18;;;;;;;18.90;5.05;;;;;;;33.32;32.43;98573.88;4956655;28;20050;-75
2022/07/25 09:12:55;;;;;;;15.20;5.43;;;;;;;33.65;31.79;98571.41;4972892;28;20051;-75
2022/07/25 09:15:30;;;;;;;8.82;4.78;;;;;;;33.78;31.25;98578.22;4941056;28;20054;-75
2022/07/25 09:18:12;;;;;;;8.40;4.90;;;;;;;33.53;31.89;98568.19;4956387;28;20039;-75
2022/07/25 09:20:49;;;;;;;19.95;5.80;;;;;;;33.43;32.50;98590.41;4956538;28;20596;-75
2022/07/25 09:23:33;;;;;;;10.30;4.78;;;;;;;33.09;32.75;98575.47;4940360;28;20053;-75
2022/07/25 09:26:07;;;;;;;9.77;4.00;;;;;;;33.11;32.78;98573.25;4956630;28;20141;-75
2022/07/25 09:28:52;;;;;;;19.05;3.85;;;;;;;33.31;32.48;98583.31;4972514;28;20047;-75
2022/07/25 09:31:18;;;;;;;20.13;3.92;;;;;;;33.54;32.17;98575.38;4972235;28;20046;-76
2022/07/25 09:33:58;;;;;;;12.43;3.50;;;;;;;34.25;32.20;98591.28;4972347;28;20049;-74
2022/07/25 09:36:24;;;;;;;10.82;3.45;;;;;;;34.83;30.52;98572.75;4972612;28;20054;-74
2022/07/25 09:39:01;;;;;;;11.23;3.45;;;;;;;34.73;30.19;98579.31;4973267;28;20047;-75
2022/07/25 09:41:39;;;;;;;9.57;3.45;;;;;;;34.56;30.45;98582.56;4956359;28;20046;-75
2022/07/25 09:44:21;;;;;;;13.93;3.20;;;;;;;34.80;30.50;98579.75;4973533;28;20047;-75
2022/07/25 09:46:47;;;;;;;15.95;3.50;;;;;;;34.95;30.52;98570.38;4976152;28;20046;-75
2022/07/25 09:49:13;;;;;;;11.98;3.25;;;;;;;35.16;30.36;98571.69;4976201;28;20046;-76
2022/07/25 09:51:40;;;;;;;12.88;3.00;;;;;;;35.33;29.00;98578.69;4976030;28;20069;-76
2022/07/25 09:54:06;;;;;;;5.40;2.60;;;;;;;35.46;28.61;98575.91;4977334;28;20042;-76
2022/07/25 09:56:34;;;;;;;12.43;2.20;;;;;;;35.65;26.53;98561.97;4977118;28;20057;-74
2022/07/25 09:59:01;;;;;;;10.52;2.65;;;;;;;35.86;26.50;98556.88;4975551;28;20035;-74
2022/07/25 10:01:45;;;;;;;8.02;2.50;;;;;;;35.87;27.02;98552.13;4975906;28;20130;-75
2022/07/25 10:04:14;;;;;;;7.07;2.08;;;;;;;36.19;26.70;98543.72;4959738;28;20071;-75
2022/07/25 10:06:48;;;;;;;25.45;2.30;;;;;;;36.25;26.47;98549.97;4977058;28;20407;-76
2022/07/25 10:09:15;;;;;;;62.20;3.28;;;;;;;36.28;25.98;98545.75;4977027;28;20512;-74
2022/07/25 10:12:07;;;;;;;9.75;2.05;;;;;;;36.21;26.30;98532.25;4959773;28;20053;-79
2022/07/25 10:14:34;;;;;;;6.57;2.15;;;;;;;36.32;25.63;98530.91;4959555;28;20045;-79
2022/07/25 10:17:00;;;;;;;2.42;1.65;;;;;;;36.59;25.42;98526.44;4975704;28;20046;-78
2022/07/25 10:19:41;;;;;;;8.10;2.00;;;;;;;36.68;25.50;98538.50;4975278;28;20051;-77
2022/07/25 10:22:08;;;;;;;5.70;1.77;;;;;;;36.73;25.07;98530.03;4943733;28;20050;-79
2022/07/25 10:24:37;;;;;;;10.25;1.95;;;;;;;36.97;25.27;98531.69;4975776;28;20045;-86
2022/07/25 10:27:12;;;;;;;3.92;1.80;;;;;;;37.03;24.85;98530.44;4943256;28;20050;-78
2022/07/25 10:29:41;;;;;;;9.50;1.88;;;;;;;36.23;25.28;98522.47;4991557;28;20134;-79
2022/07/25 10:32:11;;;;;;;4.15;1.80;;;;;;;35.66;26.32;98529.47;4975369;28;20046;-78
2022/07/25 10:34:38;;;;;;;9.77;1.50;;;;;;;35.05;27.05;98528.56;4975748;28;20043;-79
2022/07/25 10:37:13;;;;;;;6.30;2.20;;;;;;;34.61;27.55;98534.53;4976678;28;20094;-79
2022/07/25 10:39:46;;;;;;;11.57;2.30;;;;;;;34.03;28.54;98532.75;4959093;28;20301;-79
2022/07/25 10:42:20;;;;;;;6.18;1.70;;;;;;;33.62;29.20;98532.34;4959108;28;20059;-78
2022/07/25 10:44:52;;;;;;;8.82;1.90;;;;;;;33.63;29.31;98531.22;4991670;28;20061;-80
2022/07/25 10:47:22;;;;;;;5.30;1.73;;;;;;;33.57;28.99;98517.44;4975144;28;20124;-80
2022/07/25 10:49:56;;;;;;;10.48;1.85;;;;;;;33.95;28.76;98525.06;4974945;28;20502;-82
2022/07/25 10:52:27;;;;;;;12.35;1.67;;;;;;;34.44;27.67;98516.38;4976789;28;20057;-80
2022/07/25 10:54:55;;;;;;;11.88;2.22;;;;;;;35.50;26.80;98518.63;4974631;28;20047;-79
2022/07/25 10:57:21;;;;;;;11.65;2.05;;;;;;;36.36;25.73;98512.44;4957533;28;20126;-80
2022/07/25 10:59:47;;;;;;;11.80;1.88;;;;;;;36.75;25.62;98510.19;4990679;28;20443;-80
2022/07/25 11:02:18;;;;;;;6.13;1.58;;;;;;;37.14;24.99;98495.63;4974673;28;20513;-80
2022/07/25 11:05:01;;;;;;;9.13;1.80;;;;;;;37.79;24.43;98492.19;4974266;28;20489;-79
2022/07/25 11:07:34;;;;;;;9.00;1.60;;;;;;;38.69;22.96;98511.28;4975204;28;20038;-79
2022/07/25 11:10:03;;;;;;;12.65;1.50;;;;;;;38.88;22.46;98501.78;4975764;28;20050;-76
2022/07/25 11:12:30;;;;;;;4.68;1.40;;;;;;;38.67;21.59;98502.44;4974732;28;20047;-78
2022/07/25 11:15:01;;;;;;;11.55;1.60;;;;;;;38.62;21.49;98516.53;4974402;28;20560;-79
2022/07/25 11:17:29;;;;;;;10.88;1.60;;;;;;;38.65;21.54;98510.31;4990087;28;20062;-85
2022/07/25 11:19:55;;;;;;;12.43;2.42;;;;;;;39.12;21.24;98507.69;4973738;28;20053;-78
2022/07/25 11:22:21;;;;;;;6.32;1.50;;;;;;;39.33;20.76;98511.44;4974634;28;20054;-79
2022/07/25 11:24:47;;;;;;;9.98;1.45;;;;;;;39.52;20.69;98510.25;4958703;28;20512;-81